createdAt,value
2022-11-21T00:01:11.911Z,0.60
2022-11-21T00:03:39.088Z,0.70
2022-11-21T00:06:05.896Z,0.60
2022-11-21T00:08:32.850Z,0.60
2022-11-21T00:11:00.038Z,0.60
2022-11-21T00:13:26.882Z,0.60
2022-11-21T00:15:53.474Z,0.50
2022-11-21T00:18:20.042Z,0.40
2022-11-21T00:20:46.838Z,0.30
2022-11-21T00:23:13.625Z,0.30
2022-11-21T00:25:40.396Z,0.30
2022-11-21T00:28:07.142Z,0.40
2022-11-21T00:30:34.180Z,0.50
2022-11-21T00:33:01.076Z,0.50
2022-11-21T00:35:28.166Z,0.50
2022-11-21T00:37:54.879Z,0.40
2022-11-21T00:40:21.626Z,0.40
2022-11-21T00:42:48.263Z,0.30
2022-11-21T00:45:18.316Z,0.20
2022-11-21T00:47:47.938Z,0.30
2022-11-21T00:50:14.782Z,0.40
2022-11-21T00:52:41.365Z,0.40
2022-11-21T00:55:08.452Z,0.40
2022-11-21T00:57:35.098Z,0.40
2022-11-21T01:00:01.836Z,0.30
2022-11-21T01:02:28.470Z,0.30
2022-11-21T01:04:55.042Z,0.10
2022-11-21T01:07:21.707Z,0.10
2022-11-21T01:09:48.709Z,0.10
2022-11-21T01:12:15.339Z,0.10
2022-11-21T01:14:42.214Z,0.00
2022-11-21T01:17:08.815Z,0.00
2022-11-21T01:19:35.559Z,0.00
2022-11-21T01:22:02.355Z,0.00
2022-11-21T01:24:29.402Z,0.00
2022-11-21T01:26:56.415Z,0.00
2022-11-21T01:29:23.294Z,0.00
2022-11-21T01:31:50.302Z,0.00
2022-11-21T01:34:17.097Z,0.10
2022-11-21T01:36:43.923Z,0.10
2022-11-21T01:39:11.782Z,0.10
2022-11-21T01:41:41.336Z,0.10
2022-11-21T01:44:20.730Z,0.10
2022-11-21T01:46:49.086Z,0.10
2022-11-21T01:49:25.875Z,0.20
2022-11-21T01:52:08.651Z,0.20
2022-11-21T01:54:45.048Z,0.20
2022-11-21T01:57:17.452Z,0.20
2022-11-21T02:00:16.961Z,0.20
2022-11-21T02:02:49.300Z,0.10
2022-11-21T02:05:19.614Z,0.10
2022-11-21T02:07:48.450Z,0.10
2022-11-21T02:10:16.712Z,0.10
2022-11-21T02:12:49.483Z,0.10
2022-11-21T02:15:17.874Z,0.00
2022-11-21T02:17:44.652Z,0.00
2022-11-21T02:20:14.161Z,0.00
2022-11-21T02:23:20.828Z,0.00
2022-11-21T02:25:47.598Z,0.00
2022-11-21T02:28:16.598Z,0.00
2022-11-21T02:30:44.461Z,-0.10
2022-11-21T02:33:11.872Z,0.00
2022-11-21T02:35:38.978Z,-0.10
2022-11-21T02:38:18.563Z,-0.10
2022-11-21T02:40:53.802Z,-0.10
2022-11-21T02:43:25.631Z,-0.10
2022-11-21T02:45:52.399Z,0.00
2022-11-21T02:48:20.654Z,-0.10
2022-11-21T02:50:47.641Z,-0.10
2022-11-21T02:53:16.942Z,0.00
2022-11-21T02:55:44.916Z,-0.10
2022-11-21T02:58:12.467Z,-0.10
2022-11-21T03:00:41.588Z,0.00
2022-11-21T03:03:08.706Z,0.00
2022-11-21T03:05:35.740Z,0.00
2022-11-21T03:08:02.872Z,0.00
2022-11-21T03:10:29.610Z,0.10
2022-11-21T03:13:01.515Z,0.10
2022-11-21T03:15:30.925Z,0.00
2022-11-21T03:17:58.611Z,0.10
2022-11-21T03:20:25.475Z,0.10
2022-11-21T03:22:53.434Z,0.10
2022-11-21T03:25:20.479Z,0.10
2022-11-21T03:27:49.897Z,0.10
2022-11-21T03:30:16.545Z,0.10
2022-11-21T03:32:43.475Z,0.10
2022-11-21T03:35:10.215Z,0.10
2022-11-21T03:37:36.852Z,0.10
2022-11-21T03:40:03.912Z,0.10
2022-11-21T03:42:30.617Z,0.00
2022-11-21T03:44:57.261Z,0.00
2022-11-21T03:47:25.736Z,0.10
2022-11-21T03:49:52.383Z,0.00
2022-11-21T03:52:19.037Z,0.00
2022-11-21T03:54:45.608Z,0.10
2022-11-21T03:57:12.203Z,0.00
2022-11-21T03:59:38.953Z,0.00
2022-11-21T04:02:05.575Z,-0.10
2022-11-21T04:04:32.398Z,-0.10
2022-11-21T04:06:59.191Z,-0.10
2022-11-21T04:09:26.035Z,-0.10
2022-11-21T04:11:52.761Z,-0.20
2022-11-21T04:14:20.022Z,-0.20
2022-11-21T04:19:28.447Z,-0.20
2022-11-21T04:21:55.690Z,-0.20
2022-11-21T04:24:22.551Z,-0.30
2022-11-21T04:26:49.166Z,-0.40
2022-11-21T04:29:17.248Z,-0.50
2022-11-21T04:31:43.915Z,-0.50
2022-11-21T04:34:10.554Z,-0.50
2022-11-21T04:36:37.161Z,-0.60
2022-11-21T04:39:03.916Z,-0.60
2022-11-21T04:41:30.582Z,-0.60
2022-11-21T04:43:57.151Z,-0.60
2022-11-21T04:46:23.756Z,-0.60
2022-11-21T04:48:52.030Z,-0.60
2022-11-21T04:51:18.620Z,-0.70
2022-11-21T04:53:45.238Z,-0.70
2022-11-21T04:56:16.190Z,-0.60
2022-11-21T04:58:44.585Z,-0.60
2022-11-21T05:01:11.537Z,-0.60
2022-11-21T05:03:38.277Z,-0.60
2022-11-21T05:06:05.156Z,-0.60
2022-11-21T05:08:32.110Z,-0.60
2022-11-21T05:11:17.367Z,-0.60
2022-11-21T05:13:46.563Z,-0.60
2022-11-21T05:16:13.186Z,-0.60
2022-11-21T05:18:39.783Z,-0.60
2022-11-21T05:21:06.515Z,-0.60
2022-11-21T05:23:33.133Z,-0.60
2022-11-21T05:25:59.799Z,-0.50
2022-11-21T05:28:26.603Z,-0.50
2022-11-21T05:30:53.238Z,-0.50
2022-11-21T05:33:20.299Z,-0.60
2022-11-21T05:35:47.087Z,-0.60
2022-11-21T05:38:13.860Z,-0.60
2022-11-21T05:40:40.611Z,-0.60
2022-11-21T05:43:25.949Z,-0.70
2022-11-21T05:45:53.292Z,-0.60
2022-11-21T05:48:20.048Z,-0.60
2022-11-21T05:50:49.707Z,-0.60
2022-11-21T05:53:17.527Z,-0.60
2022-11-21T05:55:44.929Z,-0.60
2022-11-21T05:58:13.592Z,-0.60
2022-11-21T06:00:40.215Z,-0.60
2022-11-21T06:03:26.908Z,-0.60
2022-11-21T06:06:14.961Z,-0.60
2022-11-21T06:08:43.960Z,-0.60
2022-11-21T06:11:13.029Z,-0.60
2022-11-21T06:13:42.051Z,-0.70
2022-11-21T06:16:20.806Z,-0.80
2022-11-21T06:18:50.091Z,-0.80
2022-11-21T06:21:22.216Z,-0.70
2022-11-21T06:23:52.886Z,-0.70
2022-11-21T06:26:21.746Z,-0.80
2022-11-21T06:28:48.737Z,-0.90
2022-11-21T06:31:18.048Z,-0.90
2022-11-21T06:33:45.219Z,-0.90
2022-11-21T06:36:14.449Z,-0.90
2022-11-21T06:38:41.608Z,-0.90
2022-11-21T06:41:13.322Z,-0.90
2022-11-21T06:43:40.982Z,-0.80
2022-11-21T06:46:08.010Z,-0.80
2022-11-21T06:48:36.074Z,-0.80
2022-11-21T06:51:13.320Z,-0.80
2022-11-21T06:53:39.970Z,-0.80
2022-11-21T06:56:06.778Z,-0.70
2022-11-21T06:58:33.506Z,-0.80
2022-11-21T07:01:05.509Z,-0.70
2022-11-21T07:03:32.442Z,-0.70
2022-11-21T07:06:01.813Z,-0.70
2022-11-21T07:08:29.858Z,-0.70
2022-11-21T07:11:25.556Z,-0.70
2022-11-21T07:13:47.410Z,-0.80
2022-11-21T07:16:14.240Z,-0.80
2022-11-21T07:18:42.259Z,-0.80
2022-11-21T07:21:09.883Z,-0.70
2022-11-21T07:23:36.539Z,-0.70
2022-11-21T07:26:05.539Z,-0.70
2022-11-21T07:28:33.351Z,-0.70
2022-11-21T07:31:01.071Z,-0.70
2022-11-21T07:33:27.915Z,-0.70
2022-11-21T07:36:01.188Z,-0.70
2022-11-21T07:38:27.860Z,-0.70
2022-11-21T07:40:56.586Z,-0.70
2022-11-21T07:43:23.417Z,-0.70
2022-11-21T07:45:50.127Z,-0.70
2022-11-21T07:48:16.832Z,-0.60
2022-11-21T07:50:44.998Z,-0.60
2022-11-21T07:53:12.329Z,-0.60
2022-11-21T07:55:40.748Z,-0.60
2022-11-21T07:58:10.320Z,-0.60
2022-11-21T08:00:39.406Z,-0.60
2022-11-21T08:03:07.334Z,-0.60
2022-11-21T08:05:38.642Z,-0.60
2022-11-21T08:08:09.744Z,-0.50
2022-11-21T08:10:45.803Z,-0.50
2022-11-21T08:13:13.060Z,-0.50
2022-11-21T08:15:40.328Z,-0.40
2022-11-21T08:18:20.337Z,-0.40
2022-11-21T08:20:47.728Z,-0.30
2022-11-21T08:23:14.399Z,-0.30
2022-11-21T08:25:42.128Z,-0.20
2022-11-21T08:28:11.412Z,-0.20
2022-11-21T08:30:38.555Z,-0.10
2022-11-21T08:33:05.601Z,-0.10
2022-11-21T08:35:32.393Z,-0.10
2022-11-21T08:38:00.866Z,-0.10
2022-11-21T08:40:29.542Z,-0.10
2022-11-21T08:43:04.080Z,-0.10
2022-11-21T08:45:31.667Z,-0.10
2022-11-21T08:47:58.425Z,0.00
2022-11-21T08:50:26.230Z,0.00
2022-11-21T08:52:52.846Z,0.00
2022-11-21T08:55:19.895Z,0.00
2022-11-21T08:57:46.709Z,0.10
2022-11-21T09:00:13.900Z,0.20
2022-11-21T09:02:43.182Z,0.20
2022-11-21T09:05:10.328Z,0.30
2022-11-21T09:07:37.158Z,0.30
2022-11-21T09:10:04.550Z,0.40
2022-11-21T09:12:31.625Z,0.50
2022-11-21T09:15:16.678Z,0.60
2022-11-21T09:18:01.724Z,0.60
2022-11-21T09:20:28.530Z,0.70
2022-11-21T09:22:55.320Z,0.70
2022-11-21T09:25:22.058Z,0.70
2022-11-21T09:27:49.088Z,0.70
2022-11-21T09:30:16.254Z,0.70
2022-11-21T09:32:42.996Z,0.70
2022-11-21T09:35:09.727Z,0.70
2022-11-21T09:37:37.872Z,0.70
2022-11-21T09:40:08.186Z,0.80
2022-11-21T09:42:59.280Z,0.80
2022-11-21T09:45:37.318Z,0.90
2022-11-21T09:48:11.483Z,0.90
2022-11-21T09:50:42.647Z,0.90
2022-11-21T09:53:27.377Z,1.00
2022-11-21T09:56:01.020Z,1.20
2022-11-21T09:58:37.748Z,1.30
2022-11-21T10:01:05.037Z,1.40
2022-11-21T10:03:51.102Z,1.50
2022-11-21T10:06:23.487Z,1.50
2022-11-21T10:09:08.958Z,1.40
2022-11-21T10:12:06.495Z,1.50
2022-11-21T10:14:48.224Z,1.50
2022-11-21T10:17:35.729Z,1.50
2022-11-21T10:20:21.444Z,1.50
2022-11-21T10:23:09.777Z,1.60
2022-11-21T10:25:39.881Z,1.50
2022-11-21T10:28:48.862Z,1.40
2022-11-21T10:31:16.376Z,1.40
2022-11-21T10:33:43.159Z,1.50
2022-11-21T10:36:16.957Z,1.30
2022-11-21T10:38:45.073Z,1.30
2022-11-21T10:41:35.050Z,1.40
2022-11-21T10:44:40.012Z,1.50
2022-11-21T10:47:31.041Z,1.60
2022-11-21T10:50:09.864Z,1.60
2022-11-21T10:52:45.273Z,1.70
2022-11-21T10:55:13.994Z,1.80
2022-11-21T10:57:47.768Z,1.80
2022-11-21T11:00:14.979Z,1.90
2022-11-21T11:02:58.843Z,1.90
2022-11-21T11:05:27.987Z,2.00
2022-11-21T11:08:01.325Z,2.10
2022-11-21T11:10:28.885Z,2.20
2022-11-21T11:16:11.845Z,2.50
2022-11-21T11:18:47.119Z,2.50
2022-11-21T11:21:20.595Z,2.60
2022-11-21T11:23:50.109Z,2.80
2022-11-21T11:26:29.154Z,2.70
2022-11-21T11:29:09.736Z,2.90
2022-11-21T11:31:45.989Z,2.90
2022-11-21T11:34:15.024Z,3.00
2022-11-21T11:36:54.652Z,3.00
2022-11-21T11:39:50.787Z,3.20
2022-11-21T11:43:09.796Z,3.30
2022-11-21T11:46:10.380Z,3.40
2022-11-21T11:49:10.930Z,3.60
2022-11-21T11:51:35.115Z,3.60
2022-11-21T11:54:18.402Z,3.70
2022-11-21T11:56:47.196Z,3.70
2022-11-21T11:59:41.797Z,3.70
2022-11-21T12:02:38.831Z,3.70
2022-11-21T12:05:12.963Z,3.90
2022-11-21T12:08:50.320Z,3.90
2022-11-21T12:11:04.875Z,4.00
2022-11-21T12:13:33.478Z,3.90
2022-11-21T12:16:11.863Z,3.90
2022-11-21T12:18:54.759Z,4.10
2022-11-21T12:21:23.468Z,4.20
2022-11-21T12:23:57.836Z,4.20
2022-11-21T12:26:50.052Z,4.00
2022-11-21T12:29:38.172Z,4.10
2022-11-21T12:32:24.984Z,4.30
2022-11-21T12:35:35.921Z,4.60
2022-11-21T12:38:26.120Z,4.60
2022-11-21T12:41:39.414Z,4.50
2022-11-21T12:44:20.567Z,4.60
2022-11-21T12:47:08.734Z,4.70
2022-11-21T12:50:17.501Z,4.90
2022-11-21T12:53:15.547Z,5.00
2022-11-21T12:55:42.257Z,5.00
2022-11-21T12:58:32.932Z,5.20
2022-11-21T13:01:20.918Z,5.30
2022-11-21T13:04:03.721Z,5.30
2022-11-21T13:06:36.275Z,5.40
2022-11-21T13:09:07.956Z,5.10
2022-11-21T13:11:59.019Z,5.10
2022-11-21T13:14:31.543Z,5.20
2022-11-21T13:17:17.711Z,5.30
2022-11-21T13:20:08.085Z,5.30
2022-11-21T13:22:37.451Z,5.40
2022-11-21T13:25:09.531Z,5.50
2022-11-21T13:27:39.382Z,5.10
2022-11-21T13:30:09.431Z,5.10
2022-11-21T13:32:49.781Z,5.20
2022-11-21T13:35:19.686Z,5.10
2022-11-21T13:37:52.601Z,5.00
2022-11-21T13:40:28.933Z,4.90
2022-11-21T13:43:32.478Z,5.00
2022-11-21T13:45:59.942Z,5.20
2022-11-21T13:48:37.505Z,5.40
2022-11-21T13:51:21.368Z,5.40
2022-11-21T13:54:29.471Z,5.40
2022-11-21T13:57:07.955Z,5.30
2022-11-21T13:59:56.657Z,5.10
2022-11-21T14:02:45.016Z,5.10
2022-11-21T14:05:49.594Z,5.20
2022-11-21T14:08:22.552Z,5.20
2022-11-21T14:10:52.637Z,5.40
2022-11-21T14:13:36.744Z,5.50
2022-11-21T14:16:21.497Z,5.60
2022-11-21T14:18:48.531Z,5.60
2022-11-21T14:21:20.325Z,5.80
2022-11-21T14:23:48.092Z,5.80
2022-11-21T14:26:19.570Z,5.80
2022-11-21T14:28:46.817Z,5.80
2022-11-21T14:31:14.635Z,5.70
2022-11-21T14:33:47.380Z,5.70
2022-11-21T14:36:18.319Z,5.80
2022-11-21T14:39:45.447Z,5.80
2022-11-21T14:42:05.478Z,5.80
2022-11-21T14:44:32.374Z,5.80
2022-11-21T14:47:12.606Z,5.80
2022-11-21T14:49:39.210Z,5.80
2022-11-21T14:52:23.142Z,5.80
2022-11-21T14:55:29.006Z,5.90
2022-11-21T14:57:42.400Z,5.80
2022-11-21T15:00:24.619Z,5.80
2022-11-21T15:03:00.629Z,5.70
2022-11-21T15:06:00.610Z,5.70
2022-11-21T15:08:53.743Z,5.70
2022-11-21T15:11:11.838Z,5.60
2022-11-21T15:16:26.431Z,5.50
2022-11-21T15:18:53.081Z,5.30
2022-11-21T15:21:19.704Z,5.30
2022-11-21T15:23:47.216Z,5.30
2022-11-21T15:26:31.007Z,5.20
2022-11-21T15:28:59.746Z,5.20
2022-11-21T15:31:27.624Z,5.10
2022-11-21T15:37:04.731Z,5.10
2022-11-21T15:39:32.981Z,5.10
2022-11-21T15:42:27.470Z,5.10
2022-11-21T15:45:04.027Z,5.10
2022-11-21T15:47:30.884Z,5.10
2022-11-21T15:49:57.751Z,5.10
2022-11-21T15:52:25.677Z,5.10
2022-11-21T15:54:52.334Z,5.00
2022-11-21T15:57:14.859Z,5.60
2022-11-21T15:57:15.545Z,5.10
2022-11-21T15:59:46.567Z,5.00
2022-11-21T16:02:14.441Z,4.90
2022-11-21T16:04:42.095Z,4.80
2022-11-21T16:07:08.923Z,4.70
2022-11-21T16:09:36.344Z,4.70
2022-11-21T16:12:02.972Z,4.70
2022-11-21T16:14:29.669Z,4.60
2022-11-21T16:16:56.625Z,4.50
2022-11-21T16:19:23.335Z,4.50
2022-11-21T16:21:49.991Z,4.40
2022-11-21T16:24:16.788Z,4.30
2022-11-21T16:26:43.523Z,4.30
2022-11-21T16:29:11.298Z,4.30
2022-11-21T16:31:38.465Z,4.20
2022-11-21T16:34:05.145Z,4.20
2022-11-21T16:36:32.607Z,4.10
2022-11-21T16:39:07.894Z,4.00
2022-11-21T16:41:36.930Z,3.90
2022-11-21T16:44:03.638Z,4.00
2022-11-21T16:46:30.338Z,4.00
2022-11-21T16:49:02.296Z,3.90
2022-11-21T16:51:29.830Z,3.90
2022-11-21T16:54:00.647Z,3.80
2022-11-21T16:56:29.918Z,3.70
2022-11-21T16:58:56.669Z,3.60
2022-11-21T17:01:25.791Z,3.50
2022-11-21T17:03:53.097Z,3.50
2022-11-21T17:06:22.875Z,3.50
2022-11-21T17:08:49.881Z,3.40
2022-11-21T17:11:29.005Z,3.40
2022-11-21T17:13:59.094Z,3.30
2022-11-21T17:16:25.998Z,3.30
2022-11-21T17:18:54.101Z,3.40
2022-11-21T17:21:20.787Z,3.40
2022-11-21T17:23:48.525Z,3.30
2022-11-21T17:26:20.551Z,3.30
2022-11-21T17:29:03.630Z,3.10
2022-11-21T17:31:30.984Z,3.00
2022-11-21T17:33:58.716Z,3.00
2022-11-21T17:36:27.513Z,2.90
2022-11-21T17:38:54.715Z,2.80
2022-11-21T17:41:23.191Z,2.70
2022-11-21T17:43:54.438Z,2.60
2022-11-21T17:46:21.389Z,2.60
2022-11-21T17:48:55.055Z,2.60
2022-11-21T17:51:33.554Z,2.60
2022-11-21T17:54:02.649Z,2.60
2022-11-21T17:56:31.880Z,2.60
2022-11-21T17:58:58.928Z,2.50
2022-11-21T18:01:27.400Z,2.40
2022-11-21T18:03:56.932Z,2.40
2022-11-21T18:06:24.698Z,2.30
2022-11-21T18:08:51.618Z,2.20
2022-11-21T18:11:21.362Z,2.20
2022-11-21T18:13:49.016Z,2.20
2022-11-21T18:16:18.807Z,2.20
2022-11-21T18:18:45.521Z,2.20
2022-11-21T18:21:35.546Z,2.20
2022-11-21T18:24:03.793Z,2.00
2022-11-21T18:26:33.221Z,2.00
2022-11-21T18:29:28.527Z,1.90
2022-11-21T18:31:51.099Z,1.90
2022-11-21T18:34:17.910Z,1.80
2022-11-21T18:36:44.780Z,1.80
2022-11-21T18:39:15.272Z,1.80
2022-11-21T18:41:43.216Z,1.90
2022-11-21T18:44:10.166Z,1.80
2022-11-21T18:46:38.417Z,1.80
2022-11-21T18:49:07.010Z,1.70
2022-11-21T18:51:35.729Z,1.90
2022-11-21T18:54:08.591Z,1.70
2022-11-21T18:56:36.627Z,1.70
2022-11-21T18:59:05.486Z,1.60
2022-11-21T19:01:33.294Z,1.60
2022-11-21T19:04:00.230Z,1.50
2022-11-21T19:06:27.722Z,1.40
2022-11-21T19:08:56.345Z,1.40
2022-11-21T19:11:25.796Z,1.30
2022-11-21T19:13:54.218Z,1.30
2022-11-21T19:16:25.154Z,1.30
2022-11-21T19:21:41.468Z,1.20
2022-11-21T19:24:13.054Z,1.20
2022-11-21T19:26:39.979Z,1.20
2022-11-21T19:29:06.639Z,1.20
2022-11-21T19:31:35.704Z,1.20
2022-11-21T19:34:06.875Z,1.10
2022-11-21T19:36:33.519Z,1.10
2022-11-21T19:39:00.283Z,1.20
2022-11-21T19:41:27.095Z,1.10
2022-11-21T19:43:59.344Z,1.10
2022-11-21T19:46:37.921Z,1.10
2022-11-21T19:49:05.764Z,1.10
2022-11-21T19:51:35.803Z,1.00
2022-11-21T19:54:04.097Z,1.00
2022-11-21T19:56:31.026Z,1.00
2022-11-21T19:58:58.216Z,1.00
2022-11-21T20:01:27.119Z,0.90
2022-11-21T20:03:59.476Z,0.90
2022-11-21T20:06:39.892Z,0.80
2022-11-21T20:09:18.408Z,0.80
2022-11-21T20:11:48.296Z,0.80
2022-11-21T20:14:21.429Z,0.80
2022-11-21T20:16:51.105Z,0.80
2022-11-21T20:19:22.375Z,0.80
2022-11-21T20:21:50.155Z,0.80
2022-11-21T20:24:17.846Z,0.80
2022-11-21T20:26:45.219Z,0.80
2022-11-21T20:29:15.392Z,0.80
2022-11-21T20:31:42.621Z,0.70
2022-11-21T20:34:12.879Z,0.80
2022-11-21T20:36:40.615Z,0.70
2022-11-21T20:39:18.115Z,0.70
2022-11-21T20:41:48.684Z,0.70
2022-11-21T20:47:10.344Z,0.70
2022-11-21T20:49:40.031Z,0.70
2022-11-21T20:54:54.705Z,0.70
2022-11-21T20:57:21.364Z,0.70
2022-11-21T20:59:47.956Z,0.70
2022-11-21T21:02:14.873Z,0.70
2022-11-21T21:04:42.210Z,0.70
2022-11-21T21:07:09.014Z,0.70
2022-11-21T21:09:37.773Z,0.70
2022-11-21T21:12:05.649Z,0.70
2022-11-21T21:14:32.280Z,0.70
2022-11-21T21:16:58.968Z,0.60
2022-11-21T21:19:25.560Z,0.60
2022-11-21T21:21:52.324Z,0.60
2022-11-21T21:24:19.098Z,0.60
2022-11-21T21:26:48.161Z,0.60
2022-11-21T21:29:17.207Z,0.50
2022-11-21T21:31:50.644Z,0.50
2022-11-21T21:34:19.137Z,0.50
2022-11-21T21:36:45.851Z,0.50
2022-11-21T21:39:12.696Z,0.50
2022-11-21T21:41:46.197Z,0.50
2022-11-21T21:44:14.317Z,0.50
2022-11-21T21:46:40.962Z,0.40
2022-11-21T21:49:07.805Z,0.40
2022-11-21T21:51:36.723Z,0.30
2022-11-21T21:54:03.592Z,0.30
2022-11-21T21:56:30.259Z,0.30
2022-11-21T21:58:58.643Z,0.30
2022-11-21T22:01:31.038Z,0.30
2022-11-21T22:04:02.919Z,0.30
2022-11-21T22:06:30.623Z,0.30
2022-11-21T22:08:57.388Z,0.20
2022-11-21T22:11:29.346Z,0.20
2022-11-21T22:13:58.451Z,0.20
2022-11-21T22:16:25.656Z,0.30
2022-11-21T22:18:52.615Z,0.30
2022-11-21T22:21:25.747Z,0.30
2022-11-21T22:26:39.261Z,0.20
2022-11-21T22:29:06.165Z,0.30
2022-11-21T22:31:33.685Z,0.30
2022-11-21T22:34:01.078Z,0.30
2022-11-21T22:36:27.715Z,0.30
2022-11-21T22:38:55.574Z,0.30
2022-11-21T22:41:25.198Z,0.30
2022-11-21T22:43:53.858Z,0.30
2022-11-21T22:46:21.135Z,0.30
2022-11-21T22:48:48.414Z,0.20
2022-11-21T22:51:17.919Z,0.30
2022-11-21T22:53:47.502Z,0.30
2022-11-21T22:56:16.750Z,0.30
2022-11-21T22:58:43.755Z,0.30
2022-11-21T23:01:16.496Z,0.30
2022-11-21T23:03:44.156Z,0.30
2022-11-21T23:06:13.452Z,0.30
2022-11-21T23:08:40.950Z,0.30
2022-11-21T23:11:13.799Z,0.30
2022-11-21T23:13:42.791Z,0.30
2022-11-21T23:16:10.649Z,0.30
2022-11-21T23:18:37.556Z,0.30
2022-11-21T23:21:04.945Z,0.30
2022-11-21T23:23:31.895Z,0.30
2022-11-21T23:25:58.710Z,0.30
2022-11-21T23:28:25.945Z,0.30
2022-11-21T23:30:52.631Z,0.30
2022-11-21T23:33:19.564Z,0.30
2022-11-21T23:35:46.994Z,0.30
2022-11-21T23:38:15.833Z,0.30
2022-11-21T23:40:44.342Z,0.30
2022-11-21T23:43:11.005Z,0.30
2022-11-21T23:45:37.946Z,0.40
2022-11-21T23:48:04.802Z,0.30
2022-11-21T23:50:31.809Z,0.30
2022-11-21T23:52:58.458Z,0.30
2022-11-21T23:55:25.031Z,0.30
2022-11-21T23:57:51.799Z,0.30
